sensor_id;sensor_type;location;lat;lon;timestamp;temperature;humidity
11454;DHT22;5783;55.174;61.310;2024-01-07T00:00:18;30.60;13.40
11454;DHT22;5783;55.174;61.310;2024-01-07T00:02:47;30.60;13.40
11454;DHT22;5783;55.174;61.310;2024-01-07T00:05:16;30.60;13.40
11454;DHT22;5783;55.174;61.310;2024-01-07T00:07:45;30.60;13.40
11454;DHT22;5783;55.174;61.310;2024-01-07T00:10:16;30.60;13.40
11454;DHT22;5783;55.174;61.310;2024-01-07T00:12:45;30.60;13.40
11454;DHT22;5783;55.174;61.310;2024-01-07T00:15:16;30.60;13.00
11454;DHT22;5783;55.174;61.310;2024-01-07T00:17:45;30.60;13.50
11454;DHT22;5783;55.174;61.310;2024-01-07T00:20:14;30.70;13.40
11454;DHT22;5783;55.174;61.310;2024-01-07T00:22:43;30.70;13.40
11454;DHT22;5783;55.174;61.310;2024-01-07T00:25:13;30.70;13.40
11454;DHT22;5783;55.174;61.310;2024-01-07T00:27:42;30.70;13.40
11454;DHT22;5783;55.174;61.310;2024-01-07T00:30:11;30.70;13.40
11454;DHT22;5783;55.174;61.310;2024-01-07T00:32:41;30.60;13.20
11454;DHT22;5783;55.174;61.310;2024-01-07T00:35:10;30.60;13.40
11454;DHT22;5783;55.174;61.310;2024-01-07T00:37:39;30.60;13.40
11454;DHT22;5783;55.174;61.310;2024-01-07T00:40:09;30.60;13.70
11454;DHT22;5783;55.174;61.310;2024-01-07T00:42:38;30.60;13.50
11454;DHT22;5783;55.174;61.310;2024-01-07T00:45:08;30.60;13.50
11454;DHT22;5783;55.174;61.310;2024-01-07T00:47:38;30.60;13.50
11454;DHT22;5783;55.174;61.310;2024-01-07T00:50:07;30.60;13.50
11454;DHT22;5783;55.174;61.310;2024-01-07T00:52:36;30.60;13.50
11454;DHT22;5783;55.174;61.310;2024-01-07T00:55:07;30.60;13.50
11454;DHT22;5783;55.174;61.310;2024-01-07T00:57:36;30.60;13.60
11454;DHT22;5783;55.174;61.310;2024-01-07T01:00:06;30.60;13.60
11454;DHT22;5783;55.174;61.310;2024-01-07T01:02:37;30.60;13.60
11454;DHT22;5783;55.174;61.310;2024-01-07T01:05:07;30.60;13.60
11454;DHT22;5783;55.174;61.310;2024-01-07T01:07:36;30.60;13.60
11454;DHT22;5783;55.174;61.310;2024-01-07T01:10:06;30.60;13.60
11454;DHT22;5783;55.174;61.310;2024-01-07T01:12:35;30.60;13.60
11454;DHT22;5783;55.174;61.310;2024-01-07T01:15:05;30.60;13.60
11454;DHT22;5783;55.174;61.310;2024-01-07T01:17:34;30.60;13.60
11454;DHT22;5783;55.174;61.310;2024-01-07T01:20:04;30.60;13.60
11454;DHT22;5783;55.174;61.310;2024-01-07T01:22:33;30.60;13.60
11454;DHT22;5783;55.174;61.310;2024-01-07T01:25:02;30.60;13.60
11454;DHT22;5783;55.174;61.310;2024-01-07T01:27:32;30.60;13.60
11454;DHT22;5783;55.174;61.310;2024-01-07T01:30:01;30.60;13.60
11454;DHT22;5783;55.174;61.310;2024-01-07T01:32:32;30.60;13.60
11454;DHT22;5783;55.174;61.310;2024-01-07T01:35:01;30.60;13.70
11454;DHT22;5783;55.174;61.310;2024-01-07T01:37:31;30.60;13.80
11454;DHT22;5783;55.174;61.310;2024-01-07T01:40:01;30.60;13.80
11454;DHT22;5783;55.174;61.310;2024-01-07T01:42:31;30.60;13.60
11454;DHT22;5783;55.174;61.310;2024-01-07T01:45:00;30.60;13.60
11454;DHT22;5783;55.174;61.310;2024-01-07T01:47:31;30.60;13.70
11454;DHT22;5783;55.174;61.310;2024-01-07T01:50:01;30.60;13.70
11454;DHT22;5783;55.174;61.310;2024-01-07T01:52:31;30.60;13.70
11454;DHT22;5783;55.174;61.310;2024-01-07T01:55:01;30.60;13.70
11454;DHT22;5783;55.174;61.310;2024-01-07T01:57:51;30.60;13.60
11454;DHT22;5783;55.174;61.310;2024-01-07T02:00:20;30.60;13.60
11454;DHT22;5783;55.174;61.310;2024-01-07T02:02:50;30.60;13.60
11454;DHT22;5783;55.174;61.310;2024-01-07T02:05:19;30.60;13.60
11454;DHT22;5783;55.174;61.310;2024-01-07T02:07:48;30.70;13.70
11454;DHT22;5783;55.174;61.310;2024-01-07T02:10:18;30.70;13.70
11454;DHT22;5783;55.174;61.310;2024-01-07T02:12:47;30.70;13.60
11454;DHT22;5783;55.174;61.310;2024-01-07T02:15:17;30.70;13.60
11454;DHT22;5783;55.174;61.310;2024-01-07T02:17:47;30.70;13.60
11454;DHT22;5783;55.174;61.310;2024-01-07T02:20:16;30.80;13.60
11454;DHT22;5783;55.174;61.310;2024-01-07T02:22:45;30.80;13.60
11454;DHT22;5783;55.174;61.310;2024-01-07T02:25:14;30.80;13.60
11454;DHT22;5783;55.174;61.310;2024-01-07T02:27:43;30.80;13.60
11454;DHT22;5783;55.174;61.310;2024-01-07T02:30:13;30.80;13.60
11454;DHT22;5783;55.174;61.310;2024-01-07T02:32:42;30.70;13.60
11454;DHT22;5783;55.174;61.310;2024-01-07T02:35:11;30.70;13.60
11454;DHT22;5783;55.174;61.310;2024-01-07T02:37:40;30.70;13.60
11454;DHT22;5783;55.174;61.310;2024-01-07T02:40:10;30.70;13.70
11454;DHT22;5783;55.174;61.310;2024-01-07T02:42:39;30.70;13.60
11454;DHT22;5783;55.174;61.310;2024-01-07T02:45:09;30.70;13.60
11454;DHT22;5783;55.174;61.310;2024-01-07T02:47:38;30.70;13.60
11454;DHT22;5783;55.174;61.310;2024-01-07T02:50:07;30.70;13.60
11454;DHT22;5783;55.174;61.310;2024-01-07T02:52:37;30.70;13.60
11454;DHT22;5783;55.174;61.310;2024-01-07T02:55:06;30.70;13.60
11454;DHT22;5783;55.174;61.310;2024-01-07T02:57:36;30.70;13.70
11454;DHT22;5783;55.174;61.310;2024-01-07T03:00:06;30.80;13.60
11454;DHT22;5783;55.174;61.310;2024-01-07T03:02:35;30.80;13.60
11454;DHT22;5783;55.174;61.310;2024-01-07T03:05:04;30.80;13.90
11454;DHT22;5783;55.174;61.310;2024-01-07T03:07:34;30.80;13.60
11454;DHT22;5783;55.174;61.310;2024-01-07T03:10:03;30.80;13.60
11454;DHT22;5783;55.174;61.310;2024-01-07T03:12:32;30.80;13.60
11454;DHT22;5783;55.174;61.310;2024-01-07T03:15:01;30.80;13.50
11454;DHT22;5783;55.174;61.310;2024-01-07T03:17:32;30.80;13.50
11454;DHT22;5783;55.174;61.310;2024-01-07T03:20:02;30.80;13.60
11454;DHT22;5783;55.174;61.310;2024-01-07T03:22:32;30.80;13.50
11454;DHT22;5783;55.174;61.310;2024-01-07T03:25:02;30.80;13.60
11454;DHT22;5783;55.174;61.310;2024-01-07T03:27:32;30.80;13.60
11454;DHT22;5783;55.174;61.310;2024-01-07T03:30:01;30.80;13.60
11454;DHT22;5783;55.174;61.310;2024-01-07T03:32:32;30.80;13.70
11454;DHT22;5783;55.174;61.310;2024-01-07T03:35:01;30.80;13.80
11454;DHT22;5783;55.174;61.310;2024-01-07T03:37:31;30.80;13.10
11454;DHT22;5783;55.174;61.310;2024-01-07T03:40:01;30.80;13.60
11454;DHT22;5783;55.174;61.310;2024-01-07T03:42:31;30.70;13.60
11454;DHT22;5783;55.174;61.310;2024-01-07T03:45:00;30.70;13.60
11454;DHT22;5783;55.174;61.310;2024-01-07T03:47:30;30.70;13.60
11454;DHT22;5783;55.174;61.310;2024-01-07T03:49:59;30.70;13.60
11454;DHT22;5783;55.174;61.310;2024-01-07T03:52:28;30.70;13.70
11454;DHT22;5783;55.174;61.310;2024-01-07T03:54:57;30.70;13.60
11454;DHT22;5783;55.174;61.310;2024-01-07T03:57:27;30.70;13.60
11454;DHT22;5783;55.174;61.310;2024-01-07T03:59:56;30.80;13.60
11454;DHT22;5783;55.174;61.310;2024-01-07T04:02:25;30.80;13.60
11454;DHT22;5783;55.174;61.310;2024-01-07T04:04:54;30.80;13.60
11454;DHT22;5783;55.174;61.310;2024-01-07T04:07:23;30.80;13.60
11454;DHT22;5783;55.174;61.310;2024-01-07T04:09:53;30.80;13.60
11454;DHT22;5783;55.174;61.310;2024-01-07T04:12:22;30.80;13.60
11454;DHT22;5783;55.174;61.310;2024-01-07T04:14:51;30.80;13.60
11454;DHT22;5783;55.174;61.310;2024-01-07T04:17:20;30.80;13.80
11454;DHT22;5783;55.174;61.310;2024-01-07T04:19:49;30.80;13.60
11454;DHT22;5783;55.174;61.310;2024-01-07T04:22:18;30.80;13.70
11454;DHT22;5783;55.174;61.310;2024-01-07T04:24:47;30.70;13.70
11454;DHT22;5783;55.174;61.310;2024-01-07T04:27:17;30.70;13.60
11454;DHT22;5783;55.174;61.310;2024-01-07T04:29:46;30.70;13.70
11454;DHT22;5783;55.174;61.310;2024-01-07T04:32:15;30.70;13.70
11454;DHT22;5783;55.174;61.310;2024-01-07T04:37:35;30.60;13.70
11454;DHT22;5783;55.174;61.310;2024-01-07T04:40:06;30.60;13.80
11454;DHT22;5783;55.174;61.310;2024-01-07T04:42:35;30.60;13.80
11454;DHT22;5783;55.174;61.310;2024-01-07T04:45:05;30.60;14.10
11454;DHT22;5783;55.174;61.310;2024-01-07T04:47:34;30.60;13.70
11454;DHT22;5783;55.174;61.310;2024-01-07T04:50:04;30.60;13.70
11454;DHT22;5783;55.174;61.310;2024-01-07T04:52:34;30.70;13.80
11454;DHT22;5783;55.174;61.310;2024-01-07T04:55:03;30.70;13.70
11454;DHT22;5783;55.174;61.310;2024-01-07T04:57:32;30.70;13.70
11454;DHT22;5783;55.174;61.310;2024-01-07T05:00:03;30.80;13.80
11454;DHT22;5783;55.174;61.310;2024-01-07T05:05:22;30.80;13.60
11454;DHT22;5783;55.174;61.310;2024-01-07T05:07:51;30.70;13.70
11454;DHT22;5783;55.174;61.310;2024-01-07T05:10:20;30.70;13.70
11454;DHT22;5783;55.174;61.310;2024-01-07T05:12:49;30.70;14.00
11454;DHT22;5783;55.174;61.310;2024-01-07T05:15:18;30.80;14.00
11454;DHT22;5783;55.174;61.310;2024-01-07T05:17:48;30.90;14.00
11454;DHT22;5783;55.174;61.310;2024-01-07T05:20:17;30.90;13.90
11454;DHT22;5783;55.174;61.310;2024-01-07T05:22:46;31.00;14.00
11454;DHT22;5783;55.174;61.310;2024-01-07T05:25:15;31.00;13.80
11454;DHT22;5783;55.174;61.310;2024-01-07T05:27:46;31.10;13.80
11454;DHT22;5783;55.174;61.310;2024-01-07T05:30:16;31.00;12.90
11454;DHT22;5783;55.174;61.310;2024-01-07T05:32:45;30.90;13.40
11454;DHT22;5783;55.174;61.310;2024-01-07T05:35:14;30.80;13.40
11454;DHT22;5783;55.174;61.310;2024-01-07T05:37:43;30.80;13.10
11454;DHT22;5783;55.174;61.310;2024-01-07T05:40:12;30.80;13.00
11454;DHT22;5783;55.174;61.310;2024-01-07T05:43:14;30.80;13.20
11454;DHT22;5783;55.174;61.310;2024-01-07T05:45:12;30.70;12.90
11454;DHT22;5783;55.174;61.310;2024-01-07T05:47:42;30.70;12.90
11454;DHT22;5783;55.174;61.310;2024-01-07T05:50:11;30.60;12.70
11454;DHT22;5783;55.174;61.310;2024-01-07T05:52:43;30.50;12.50
11454;DHT22;5783;55.174;61.310;2024-01-07T05:55:12;30.50;12.60
11454;DHT22;5783;55.174;61.310;2024-01-07T05:57:42;30.40;12.60
11454;DHT22;5783;55.174;61.310;2024-01-07T06:00:12;30.40;12.60
11454;DHT22;5783;55.174;61.310;2024-01-07T06:02:41;30.30;12.50
11454;DHT22;5783;55.174;61.310;2024-01-07T06:05:11;30.30;12.50
11454;DHT22;5783;55.174;61.310;2024-01-07T06:07:40;30.30;12.40
11454;DHT22;5783;55.174;61.310;2024-01-07T06:10:09;30.20;12.40
11454;DHT22;5783;55.174;61.310;2024-01-07T06:12:38;30.20;12.40
11454;DHT22;5783;55.174;61.310;2024-01-07T06:15:08;30.20;12.30
11454;DHT22;5783;55.174;61.310;2024-01-07T06:17:37;30.20;12.30
11454;DHT22;5783;55.174;61.310;2024-01-07T06:20:06;30.20;12.30
11454;DHT22;5783;55.174;61.310;2024-01-07T06:22:35;30.20;12.30
11454;DHT22;5783;55.174;61.310;2024-01-07T06:25:05;30.10;12.20
11454;DHT22;5783;55.174;61.310;2024-01-07T06:27:34;30.00;12.20
11454;DHT22;5783;55.174;61.310;2024-01-07T06:30:03;30.00;11.70
11454;DHT22;5783;55.174;61.310;2024-01-07T06:32:32;30.00;12.20
11454;DHT22;5783;55.174;61.310;2024-01-07T06:35:01;30.00;12.20
11454;DHT22;5783;55.174;61.310;2024-01-07T06:37:31;30.00;12.10
11454;DHT22;5783;55.174;61.310;2024-01-07T06:40:00;30.00;12.10
11454;DHT22;5783;55.174;61.310;2024-01-07T06:42:30;30.00;12.10
11454;DHT22;5783;55.174;61.310;2024-01-07T06:44:59;30.00;12.10
11454;DHT22;5783;55.174;61.310;2024-01-07T06:47:28;29.90;12.10
11454;DHT22;5783;55.174;61.310;2024-01-07T06:49:57;29.70;12.20
11454;DHT22;5783;55.174;61.310;2024-01-07T06:52:25;29.60;12.80
11454;DHT22;5783;55.174;61.310;2024-01-07T06:54:53;29.50;12.60
11454;DHT22;5783;55.174;61.310;2024-01-07T06:57:22;29.50;12.70
11454;DHT22;5783;55.174;61.310;2024-01-07T06:59:50;29.50;12.70
11454;DHT22;5783;55.174;61.310;2024-01-07T07:02:19;29.50;12.70
11454;DHT22;5783;55.174;61.310;2024-01-07T07:04:48;29.50;12.70
11454;DHT22;5783;55.174;61.310;2024-01-07T07:07:17;29.60;12.50
11454;DHT22;5783;55.174;61.310;2024-01-07T07:09:45;29.60;12.50
11454;DHT22;5783;55.174;61.310;2024-01-07T07:12:13;29.40;12.20
11454;DHT22;5783;55.174;61.310;2024-01-07T07:14:41;29.40;12.50
11454;DHT22;5783;55.174;61.310;2024-01-07T07:17:10;29.40;12.50
11454;DHT22;5783;55.174;61.310;2024-01-07T07:19:39;29.50;12.40
11454;DHT22;5783;55.174;61.310;2024-01-07T07:22:07;29.50;12.30
11454;DHT22;5783;55.174;61.310;2024-01-07T07:24:35;29.40;12.40
11454;DHT22;5783;55.174;61.310;2024-01-07T07:27:05;29.40;12.40
11454;DHT22;5783;55.174;61.310;2024-01-07T07:29:34;29.40;12.40
11454;DHT22;5783;55.174;61.310;2024-01-07T07:32:02;29.40;12.30
11454;DHT22;5783;55.174;61.310;2024-01-07T07:34:30;29.50;12.30
11454;DHT22;5783;55.174;61.310;2024-01-07T07:36:59;29.50;12.30
11454;DHT22;5783;55.174;61.310;2024-01-07T07:39:27;29.50;12.30
11454;DHT22;5783;55.174;61.310;2024-01-07T07:41:55;29.50;12.30
11454;DHT22;5783;55.174;61.310;2024-01-07T07:44:24;29.50;12.20
11454;DHT22;5783;55.174;61.310;2024-01-07T07:46:52;29.50;12.20
11454;DHT22;5783;55.174;61.310;2024-01-07T07:49:20;29.40;12.10
11454;DHT22;5783;55.174;61.310;2024-01-07T07:51:48;29.30;12.10
11454;DHT22;5783;55.174;61.310;2024-01-07T07:54:17;29.30;12.00
11454;DHT22;5783;55.174;61.310;2024-01-07T07:56:45;29.20;12.00
11454;DHT22;5783;55.174;61.310;2024-01-07T07:59:14;29.20;12.20
11454;DHT22;5783;55.174;61.310;2024-01-07T08:01:42;29.20;12.20
11454;DHT22;5783;55.174;61.310;2024-01-07T08:04:10;29.20;12.30
11454;DHT22;5783;55.174;61.310;2024-01-07T08:06:38;29.20;12.20
11454;DHT22;5783;55.174;61.310;2024-01-07T08:09:06;29.20;12.20
11454;DHT22;5783;55.174;61.310;2024-01-07T08:11:34;29.20;12.20
11454;DHT22;5783;55.174;61.310;2024-01-07T08:14:02;29.20;12.30
11454;DHT22;5783;55.174;61.310;2024-01-07T08:16:32;29.20;12.20
11454;DHT22;5783;55.174;61.310;2024-01-07T08:19:00;29.20;12.20
11454;DHT22;5783;55.174;61.310;2024-01-07T08:21:28;29.20;12.20
11454;DHT22;5783;55.174;61.310;2024-01-07T08:23:56;29.20;12.30
11454;DHT22;5783;55.174;61.310;2024-01-07T08:26:24;29.20;12.80
11454;DHT22;5783;55.174;61.310;2024-01-07T08:28:52;29.20;12.30
11454;DHT22;5783;55.174;61.310;2024-01-07T08:31:20;29.20;12.30
11454;DHT22;5783;55.174;61.310;2024-01-07T08:33:49;29.20;12.30
11454;DHT22;5783;55.174;61.310;2024-01-07T08:36:17;29.20;12.40
11454;DHT22;5783;55.174;61.310;2024-01-07T08:38:45;29.20;12.40
11454;DHT22;5783;55.174;61.310;2024-01-07T08:41:47;29.20;12.30
11454;DHT22;5783;55.174;61.310;2024-01-07T08:43:43;29.20;12.40
11454;DHT22;5783;55.174;61.310;2024-01-07T08:46:11;29.20;12.30
11454;DHT22;5783;55.174;61.310;2024-01-07T08:48:59;29.10;12.30
11454;DHT22;5783;55.174;61.310;2024-01-07T08:51:27;29.10;12.30
11454;DHT22;5783;55.174;61.310;2024-01-07T08:53:56;29.10;12.30
11454;DHT22;5783;55.174;61.310;2024-01-07T08:56:25;29.10;12.30
11454;DHT22;5783;55.174;61.310;2024-01-07T08:58:53;29.10;12.40
11454;DHT22;5783;55.174;61.310;2024-01-07T09:01:21;29.10;12.30
11454;DHT22;5783;55.174;61.310;2024-01-07T09:03:50;29.10;12.20
11454;DHT22;5783;55.174;61.310;2024-01-07T09:06:18;29.10;12.30
11454;DHT22;5783;55.174;61.310;2024-01-07T09:08:46;29.10;12.20
11454;DHT22;5783;55.174;61.310;2024-01-07T09:11:15;29.10;12.30
11454;DHT22;5783;55.174;61.310;2024-01-07T09:13:44;29.10;12.30
11454;DHT22;5783;55.174;61.310;2024-01-07T09:16:14;29.10;12.30
11454;DHT22;5783;55.174;61.310;2024-01-07T09:18:42;29.10;12.20
11454;DHT22;5783;55.174;61.310;2024-01-07T09:21:11;29.10;12.10
11454;DHT22;5783;55.174;61.310;2024-01-07T09:23:41;29.10;12.20
11454;DHT22;5783;55.174;61.310;2024-01-07T09:26:10;29.20;12.30
11454;DHT22;5783;55.174;61.310;2024-01-07T09:28:38;29.20;12.30
11454;DHT22;5783;55.174;61.310;2024-01-07T09:31:08;29.20;12.20
11454;DHT22;5783;55.174;61.310;2024-01-07T09:33:36;29.20;12.80
11454;DHT22;5783;55.174;61.310;2024-01-07T09:36:05;29.20;12.10
11454;DHT22;5783;55.174;61.310;2024-01-07T09:38:35;29.20;12.20
11454;DHT22;5783;55.174;61.310;2024-01-07T09:41:03;29.20;12.20
11454;DHT22;5783;55.174;61.310;2024-01-07T09:43:31;29.20;12.20
11454;DHT22;5783;55.174;61.310;2024-01-07T09:45:59;29.20;12.10
11454;DHT22;5783;55.174;61.310;2024-01-07T09:48:27;29.10;12.10
11454;DHT22;5783;55.174;61.310;2024-01-07T09:50:56;29.10;12.10
11454;DHT22;5783;55.174;61.310;2024-01-07T09:53:25;29.10;12.10
11454;DHT22;5783;55.174;61.310;2024-01-07T09:56:26;29.10;12.10
11454;DHT22;5783;55.174;61.310;2024-01-07T09:58:25;29.10;12.10
11454;DHT22;5783;55.174;61.310;2024-01-07T10:00:53;29.10;12.20
11454;DHT22;5783;55.174;61.310;2024-01-07T10:03:22;29.10;12.40
11454;DHT22;5783;55.174;61.310;2024-01-07T10:05:50;29.00;12.20
11454;DHT22;5783;55.174;61.310;2024-01-07T10:08:20;29.00;11.80
11454;DHT22;5783;55.174;61.310;2024-01-07T10:10:49;29.00;12.30
11454;DHT22;5783;55.174;61.310;2024-01-07T10:13:17;29.00;12.20
11454;DHT22;5783;55.174;61.310;2024-01-07T10:15:45;29.10;12.20
11454;DHT22;5783;55.174;61.310;2024-01-07T10:18:13;29.10;12.20
11454;DHT22;5783;55.174;61.310;2024-01-07T10:20:41;29.10;12.20
11454;DHT22;5783;55.174;61.310;2024-01-07T10:23:10;29.10;12.20
11454;DHT22;5783;55.174;61.310;2024-01-07T10:25:38;29.10;12.10
11454;DHT22;5783;55.174;61.310;2024-01-07T10:28:08;29.00;12.20
11454;DHT22;5783;55.174;61.310;2024-01-07T10:30:38;29.00;12.20
11454;DHT22;5783;55.174;61.310;2024-01-07T10:33:06;29.10;12.30
11454;DHT22;5783;55.174;61.310;2024-01-07T10:35:35;29.00;12.20
11454;DHT22;5783;55.174;61.310;2024-01-07T10:38:04;29.00;12.20
11454;DHT22;5783;55.174;61.310;2024-01-07T10:40:33;29.00;12.20
11454;DHT22;5783;55.174;61.310;2024-01-07T10:43:03;28.90;12.20
11454;DHT22;5783;55.174;61.310;2024-01-07T10:45:32;28.90;12.20
11454;DHT22;5783;55.174;61.310;2024-01-07T10:48:00;28.90;12.20
11454;DHT22;5783;55.174;61.310;2024-01-07T10:50:32;28.90;12.10
11454;DHT22;5783;55.174;61.310;2024-01-07T10:55:33;28.90;12.30
11454;DHT22;5783;55.174;61.310;2024-01-07T10:58:02;28.90;12.30
11454;DHT22;5783;55.174;61.310;2024-01-07T11:00:31;28.80;12.30
11454;DHT22;5783;55.174;61.310;2024-01-07T11:10:50;28.80;12.40
11454;DHT22;5783;55.174;61.310;2024-01-07T11:21:24;28.80;12.40
11454;DHT22;5783;55.174;61.310;2024-01-07T11:23:53;28.70;12.40
11454;DHT22;5783;55.174;61.310;2024-01-07T11:26:21;28.70;12.70
11454;DHT22;5783;55.174;61.310;2024-01-07T11:37:15;28.80;12.50
11454;DHT22;5783;55.174;61.310;2024-01-07T11:39:44;28.80;12.60
11454;DHT22;5783;55.174;61.310;2024-01-07T11:42:12;28.80;12.50
11454;DHT22;5783;55.174;61.310;2024-01-07T11:47:29;28.80;12.40
11454;DHT22;5783;55.174;61.310;2024-01-07T11:49:57;28.90;12.70
11454;DHT22;5783;55.174;61.310;2024-01-07T11:52:26;28.80;12.50
11454;DHT22;5783;55.174;61.310;2024-01-07T11:54:55;28.80;12.50
11454;DHT22;5783;55.174;61.310;2024-01-07T11:57:23;28.90;12.60
11454;DHT22;5783;55.174;61.310;2024-01-07T11:59:52;28.80;12.80
11454;DHT22;5783;55.174;61.310;2024-01-07T12:02:20;28.90;12.70
11454;DHT22;5783;55.174;61.310;2024-01-07T12:04:48;28.90;12.70
11454;DHT22;5783;55.174;61.310;2024-01-07T12:07:16;28.90;12.60
11454;DHT22;5783;55.174;61.310;2024-01-07T12:09:44;28.90;12.70
11454;DHT22;5783;55.174;61.310;2024-01-07T12:12:13;28.90;12.70
11454;DHT22;5783;55.174;61.310;2024-01-07T12:14:41;29.00;12.70
11454;DHT22;5783;55.174;61.310;2024-01-07T12:17:10;29.00;12.70
11454;DHT22;5783;55.174;61.310;2024-01-07T12:19:39;29.00;12.70
11454;DHT22;5783;55.174;61.310;2024-01-07T12:22:07;29.00;12.70
11454;DHT22;5783;55.174;61.310;2024-01-07T12:24:36;29.00;12.70
11454;DHT22;5783;55.174;61.310;2024-01-07T12:27:04;29.00;12.90
11454;DHT22;5783;55.174;61.310;2024-01-07T12:29:33;29.00;12.70
11454;DHT22;5783;55.174;61.310;2024-01-07T12:32:01;29.00;12.70
11454;DHT22;5783;55.174;61.310;2024-01-07T12:34:29;29.00;12.60
11454;DHT22;5783;55.174;61.310;2024-01-07T12:36:59;29.00;12.70
11454;DHT22;5783;55.174;61.310;2024-01-07T12:39:28;29.00;12.80
11454;DHT22;5783;55.174;61.310;2024-01-07T12:41:56;28.90;12.70
11454;DHT22;5783;55.174;61.310;2024-01-07T12:44:27;28.90;12.70
11454;DHT22;5783;55.174;61.310;2024-01-07T12:46:54;28.90;12.80
11454;DHT22;5783;55.174;61.310;2024-01-07T12:49:22;28.90;12.90
11454;DHT22;5783;55.174;61.310;2024-01-07T12:51:50;28.90;12.80
11454;DHT22;5783;55.174;61.310;2024-01-07T12:54:19;28.90;12.90
11454;DHT22;5783;55.174;61.310;2024-01-07T12:56:48;28.80;12.80
11454;DHT22;5783;55.174;61.310;2024-01-07T12:59:17;28.80;12.30
11454;DHT22;5783;55.174;61.310;2024-01-07T13:01:46;28.70;12.80
11454;DHT22;5783;55.174;61.310;2024-01-07T13:04:15;28.70;12.90
11454;DHT22;5783;55.174;61.310;2024-01-07T13:06:45;28.70;12.90
11454;DHT22;5783;55.174;61.310;2024-01-07T13:09:13;28.70;12.80
11454;DHT22;5783;55.174;61.310;2024-01-07T13:11:41;28.80;12.90
11454;DHT22;5783;55.174;61.310;2024-01-07T13:14:10;28.80;12.80
11454;DHT22;5783;55.174;61.310;2024-01-07T13:16:38;28.80;12.80
11454;DHT22;5783;55.174;61.310;2024-01-07T13:19:06;28.80;12.80
11454;DHT22;5783;55.174;61.310;2024-01-07T13:21:36;28.80;12.80
11454;DHT22;5783;55.174;61.310;2024-01-07T13:24:04;28.80;12.70
11454;DHT22;5783;55.174;61.310;2024-01-07T13:26:32;28.80;12.80
11454;DHT22;5783;55.174;61.310;2024-01-07T13:29:00;28.90;12.80
11454;DHT22;5783;55.174;61.310;2024-01-07T13:31:29;28.90;12.80
11454;DHT22;5783;55.174;61.310;2024-01-07T13:33:58;28.90;12.80
11454;DHT22;5783;55.174;61.310;2024-01-07T13:36:26;28.90;12.80
11454;DHT22;5783;55.174;61.310;2024-01-07T13:38:54;28.90;12.80
11454;DHT22;5783;55.174;61.310;2024-01-07T13:41:22;28.90;12.70
11454;DHT22;5783;55.174;61.310;2024-01-07T13:43:52;28.90;12.80
11454;DHT22;5783;55.174;61.310;2024-01-07T13:46:22;28.80;12.80
11454;DHT22;5783;55.174;61.310;2024-01-07T13:48:51;28.80;12.80
11454;DHT22;5783;55.174;61.310;2024-01-07T13:51:19;29.50;18.90
11454;DHT22;5783;55.174;61.310;2024-01-07T13:53:47;28.80;12.50
11454;DHT22;5783;55.174;61.310;2024-01-07T13:56:15;28.90;12.60
11454;DHT22;5783;55.174;61.310;2024-01-07T13:58:44;28.80;13.00
11454;DHT22;5783;55.174;61.310;2024-01-07T14:01:13;28.80;12.50
11454;DHT22;5783;55.174;61.310;2024-01-07T14:03:42;28.70;12.70
11454;DHT22;5783;55.174;61.310;2024-01-07T14:06:10;28.80;12.80
11454;DHT22;5783;55.174;61.310;2024-01-07T14:08:39;28.80;13.00
11454;DHT22;5783;55.174;61.310;2024-01-07T14:11:07;29.60;16.30
11454;DHT22;5783;55.174;61.310;2024-01-07T14:18:30;29.00;12.90
11454;DHT22;5783;55.174;61.310;2024-01-07T14:20:59;28.90;12.90
11454;DHT22;5783;55.174;61.310;2024-01-07T14:23:27;29.10;13.10
11454;DHT22;5783;55.174;61.310;2024-01-07T14:25:57;28.90;13.00
11454;DHT22;5783;55.174;61.310;2024-01-07T14:30:53;29.00;13.10
11454;DHT22;5783;55.174;61.310;2024-01-07T14:33:21;29.00;13.60
11454;DHT22;5783;55.174;61.310;2024-01-07T14:35:49;29.00;13.60
11454;DHT22;5783;55.174;61.310;2024-01-07T14:38:18;29.10;13.60
11454;DHT22;5783;55.174;61.310;2024-01-07T14:40:46;29.00;13.60
11454;DHT22;5783;55.174;61.310;2024-01-07T14:43:14;29.00;13.70
11454;DHT22;5783;55.174;61.310;2024-01-07T14:45:42;29.00;13.70
11454;DHT22;5783;55.174;61.310;2024-01-07T14:48:11;28.90;16.70
11454;DHT22;5783;55.174;61.310;2024-01-07T14:50:40;28.80;20.10
11454;DHT22;5783;55.174;61.310;2024-01-07T14:53:10;28.40;20.30
11454;DHT22;5783;55.174;61.310;2024-01-07T14:55:38;28.10;21.60
11454;DHT22;5783;55.174;61.310;2024-01-07T14:58:08;27.80;21.30
11454;DHT22;5783;55.174;61.310;2024-01-07T15:00:36;27.50;22.90
11454;DHT22;5783;55.174;61.310;2024-01-07T15:03:05;27.30;22.60
11454;DHT22;5783;55.174;61.310;2024-01-07T15:05:34;27.20;22.50
11454;DHT22;5783;55.174;61.310;2024-01-07T15:08:02;27.10;22.60
11454;DHT22;5783;55.174;61.310;2024-01-07T15:10:31;27.10;20.40
11454;DHT22;5783;55.174;61.310;2024-01-07T15:12:59;27.20;22.30
11454;DHT22;5783;55.174;61.310;2024-01-07T15:15:27;27.30;21.60
11454;DHT22;5783;55.174;61.310;2024-01-07T15:17:56;27.30;21.10
11454;DHT22;5783;55.174;61.310;2024-01-07T15:20:24;27.40;20.70
11454;DHT22;5783;55.174;61.310;2024-01-07T15:22:52;27.50;20.40
11454;DHT22;5783;55.174;61.310;2024-01-07T15:25:20;27.60;20.10
11454;DHT22;5783;55.174;61.310;2024-01-07T15:27:49;27.70;19.80
11454;DHT22;5783;55.174;61.310;2024-01-07T15:30:18;27.70;19.50
11454;DHT22;5783;55.174;61.310;2024-01-07T15:32:46;27.80;18.90
11454;DHT22;5783;55.174;61.310;2024-01-07T15:35:14;27.90;19.20
11454;DHT22;5783;55.174;61.310;2024-01-07T15:37:43;28.00;18.20
11454;DHT22;5783;55.174;61.310;2024-01-07T15:40:11;28.10;17.90
11454;DHT22;5783;55.174;61.310;2024-01-07T15:42:40;28.20;17.70
11454;DHT22;5783;55.174;61.310;2024-01-07T15:45:08;28.30;17.50
11454;DHT22;5783;55.174;61.310;2024-01-07T15:47:36;28.30;17.20
11454;DHT22;5783;55.174;61.310;2024-01-07T15:50:05;28.40;17.10
11454;DHT22;5783;55.174;61.310;2024-01-07T15:52:33;28.50;16.90
11454;DHT22;5783;55.174;61.310;2024-01-07T15:55:01;28.50;17.40
11454;DHT22;5783;55.174;61.310;2024-01-07T15:57:30;28.70;16.60
11454;DHT22;5783;55.174;61.310;2024-01-07T15:59:58;28.70;17.20
11454;DHT22;5783;55.174;61.310;2024-01-07T16:02:26;29.60;25.50
11454;DHT22;5783;55.174;61.310;2024-01-07T16:04:54;28.70;16.20
11454;DHT22;5783;55.174;61.310;2024-01-07T16:07:22;29.30;16.20
11454;DHT22;5783;55.174;61.310;2024-01-07T16:12:18;29.30;15.80
11454;DHT22;5783;55.174;61.310;2024-01-07T16:14:48;29.40;15.70
11454;DHT22;5783;55.174;61.310;2024-01-07T16:17:16;29.20;15.40
11454;DHT22;5783;55.174;61.310;2024-01-07T16:19:44;29.10;16.40
11454;DHT22;5783;55.174;61.310;2024-01-07T16:24:40;29.30;16.10
11454;DHT22;5783;55.174;61.310;2024-01-07T16:27:09;29.70;16.20